sensor_id;sensor_type;location;lat;lon;timestamp;P1;durP1;ratioP1;P2;durP2;ratioP2
15312;SDS011;7757;52.626;4.746;2022-12-18T00:01:59;24.17;;;10.38;;
15312;SDS011;7757;52.626;4.746;2022-12-18T00:04:26;28.25;;;10.98;;
15312;SDS011;7757;52.626;4.746;2022-12-18T00:06:55;26.48;;;10.05;;
15312;SDS011;7757;52.626;4.746;2022-12-18T00:09:22;24.33;;;9.95;;
15312;SDS011;7757;52.626;4.746;2022-12-18T00:11:49;25.90;;;10.38;;
15312;SDS011;7757;52.626;4.746;2022-12-18T00:14:16;24.05;;;10.73;;
15312;SDS011;7757;52.626;4.746;2022-12-18T00:16:43;24.98;;;10.95;;
15312;SDS011;7757;52.626;4.746;2022-12-18T00:19:11;25.35;;;10.50;;
15312;SDS011;7757;52.626;4.746;2022-12-18T00:21:39;24.80;;;10.73;;
15312;SDS011;7757;52.626;4.746;2022-12-18T00:24:08;27.33;;;11.50;;
15312;SDS011;7757;52.626;4.746;2022-12-18T00:26:37;26.88;;;10.93;;
15312;SDS011;7757;52.626;4.746;2022-12-18T00:29:06;25.95;;;11.15;;
15312;SDS011;7757;52.626;4.746;2022-12-18T00:31:34;28.30;;;11.52;;
15312;SDS011;7757;52.626;4.746;2022-12-18T00:34:01;23.55;;;9.68;;
15312;SDS011;7757;52.626;4.746;2022-12-18T00:36:28;27.13;;;10.70;;
15312;SDS011;7757;52.626;4.746;2022-12-18T00:38:57;28.95;;;11.45;;
15312;SDS011;7757;52.626;4.746;2022-12-18T00:41:27;27.40;;;10.38;;
15312;SDS011;7757;52.626;4.746;2022-12-18T00:44:12;29.98;;;10.60;;
15312;SDS011;7757;52.626;4.746;2022-12-18T00:46:41;26.88;;;10.93;;
15312;SDS011;7757;52.626;4.746;2022-12-18T00:49:08;25.75;;;10.10;;
15312;SDS011;7757;52.626;4.746;2022-12-18T00:51:35;28.08;;;11.90;;
15312;SDS011;7757;52.626;4.746;2022-12-18T00:54:02;28.77;;;10.93;;
15312;SDS011;7757;52.626;4.746;2022-12-18T00:56:30;26.13;;;10.38;;
15312;SDS011;7757;52.626;4.746;2022-12-18T00:58:57;28.88;;;11.88;;
15312;SDS011;7757;52.626;4.746;2022-12-18T01:01:24;28.65;;;10.73;;
15312;SDS011;7757;52.626;4.746;2022-12-18T01:03:50;31.30;;;10.25;;
15312;SDS011;7757;52.626;4.746;2022-12-18T01:06:17;26.75;;;10.85;;
15312;SDS011;7757;52.626;4.746;2022-12-18T01:08:44;28.13;;;10.30;;
15312;SDS011;7757;52.626;4.746;2022-12-18T01:11:12;26.00;;;10.15;;
15312;SDS011;7757;52.626;4.746;2022-12-18T01:13:41;27.63;;;10.32;;
15312;SDS011;7757;52.626;4.746;2022-12-18T01:16:10;31.90;;;11.07;;
15312;SDS011;7757;52.626;4.746;2022-12-18T01:18:38;27.02;;;11.02;;
15312;SDS011;7757;52.626;4.746;2022-12-18T01:21:06;28.65;;;9.60;;
15312;SDS011;7757;52.626;4.746;2022-12-18T01:23:33;25.50;;;10.27;;
15312;SDS011;7757;52.626;4.746;2022-12-18T01:26:04;24.02;;;10.25;;
15312;SDS011;7757;52.626;4.746;2022-12-18T01:28:31;26.35;;;10.45;;
15312;SDS011;7757;52.626;4.746;2022-12-18T01:31:10;22.40;;;9.55;;
15312;SDS011;7757;52.626;4.746;2022-12-18T01:33:37;22.83;;;9.48;;
15312;SDS011;7757;52.626;4.746;2022-12-18T01:36:04;25.50;;;9.70;;
15312;SDS011;7757;52.626;4.746;2022-12-18T01:38:31;25.05;;;9.88;;
15312;SDS011;7757;52.626;4.746;2022-12-18T01:40:58;22.35;;;9.10;;
15312;SDS011;7757;52.626;4.746;2022-12-18T01:43:40;23.85;;;10.10;;
15312;SDS011;7757;52.626;4.746;2022-12-18T01:46:09;21.30;;;9.25;;
15312;SDS011;7757;52.626;4.746;2022-12-18T01:48:36;21.60;;;9.52;;
15312;SDS011;7757;52.626;4.746;2022-12-18T01:51:05;24.25;;;9.95;;
15312;SDS011;7757;52.626;4.746;2022-12-18T01:53:34;22.48;;;8.82;;
15312;SDS011;7757;52.626;4.746;2022-12-18T01:56:02;19.98;;;8.70;;
15312;SDS011;7757;52.626;4.746;2022-12-18T01:58:30;22.70;;;9.43;;
15312;SDS011;7757;52.626;4.746;2022-12-18T02:01:04;22.55;;;8.52;;
15312;SDS011;7757;52.626;4.746;2022-12-18T02:03:33;23.10;;;9.07;;
15312;SDS011;7757;52.626;4.746;2022-12-18T02:06:00;21.15;;;9.23;;
15312;SDS011;7757;52.626;4.746;2022-12-18T02:08:39;22.27;;;8.82;;
15312;SDS011;7757;52.626;4.746;2022-12-18T02:11:13;23.30;;;9.77;;
15312;SDS011;7757;52.626;4.746;2022-12-18T02:13:50;20.95;;;8.52;;
15312;SDS011;7757;52.626;4.746;2022-12-18T02:16:27;25.30;;;9.02;;
15312;SDS011;7757;52.626;4.746;2022-12-18T02:19:03;21.75;;;8.82;;
15312;SDS011;7757;52.626;4.746;2022-12-18T02:21:44;22.20;;;8.82;;
15312;SDS011;7757;52.626;4.746;2022-12-18T02:24:18;19.80;;;8.65;;
15312;SDS011;7757;52.626;4.746;2022-12-18T02:26:58;22.48;;;8.52;;
15312;SDS011;7757;52.626;4.746;2022-12-18T02:29:28;21.58;;;8.52;;
15312;SDS011;7757;52.626;4.746;2022-12-18T02:31:58;20.35;;;8.40;;
15312;SDS011;7757;52.626;4.746;2022-12-18T02:34:26;20.05;;;8.15;;
15312;SDS011;7757;52.626;4.746;2022-12-18T02:36:56;21.20;;;8.60;;
15312;SDS011;7757;52.626;4.746;2022-12-18T02:39:25;21.33;;;8.77;;
15312;SDS011;7757;52.626;4.746;2022-12-18T02:41:54;22.75;;;9.23;;
15312;SDS011;7757;52.626;4.746;2022-12-18T02:44:24;22.95;;;8.88;;
15312;SDS011;7757;52.626;4.746;2022-12-18T02:46:52;22.33;;;9.40;;
15312;SDS011;7757;52.626;4.746;2022-12-18T02:49:22;21.05;;;9.38;;
15312;SDS011;7757;52.626;4.746;2022-12-18T02:51:59;21.60;;;9.40;;
15312;SDS011;7757;52.626;4.746;2022-12-18T02:54:35;23.05;;;9.43;;
15312;SDS011;7757;52.626;4.746;2022-12-18T02:57:13;22.08;;;10.00;;
15312;SDS011;7757;52.626;4.746;2022-12-18T02:59:47;23.55;;;9.90;;
15312;SDS011;7757;52.626;4.746;2022-12-18T03:02:21;22.52;;;9.95;;
15312;SDS011;7757;52.626;4.746;2022-12-18T03:04:55;24.33;;;10.45;;
15312;SDS011;7757;52.626;4.746;2022-12-18T03:07:30;21.73;;;9.77;;
15312;SDS011;7757;52.626;4.746;2022-12-18T03:10:03;23.40;;;10.20;;
15312;SDS011;7757;52.626;4.746;2022-12-18T03:12:40;22.55;;;10.10;;
15312;SDS011;7757;52.626;4.746;2022-12-18T03:15:13;24.45;;;9.68;;
15312;SDS011;7757;52.626;4.746;2022-12-18T03:17:44;23.67;;;10.02;;
15312;SDS011;7757;52.626;4.746;2022-12-18T03:20:13;23.52;;;9.73;;
15312;SDS011;7757;52.626;4.746;2022-12-18T03:22:44;23.70;;;9.77;;
15312;SDS011;7757;52.626;4.746;2022-12-18T03:25:14;22.85;;;9.43;;
15312;SDS011;7757;52.626;4.746;2022-12-18T03:27:43;23.27;;;9.80;;
15312;SDS011;7757;52.626;4.746;2022-12-18T03:30:16;24.23;;;10.10;;
15312;SDS011;7757;52.626;4.746;2022-12-18T03:32:44;22.65;;;9.68;;
15312;SDS011;7757;52.626;4.746;2022-12-18T03:35:15;25.50;;;10.02;;
15312;SDS011;7757;52.626;4.746;2022-12-18T03:37:46;22.13;;;9.00;;
15312;SDS011;7757;52.626;4.746;2022-12-18T03:40:13;23.02;;;10.32;;
15312;SDS011;7757;52.626;4.746;2022-12-18T03:42:42;25.40;;;10.23;;
15312;SDS011;7757;52.626;4.746;2022-12-18T03:45:18;27.13;;;9.73;;
15312;SDS011;7757;52.626;4.746;2022-12-18T03:47:52;24.95;;;10.10;;
15312;SDS011;7757;52.626;4.746;2022-12-18T03:50:27;25.20;;;9.63;;
15312;SDS011;7757;52.626;4.746;2022-12-18T03:53:05;20.90;;;8.95;;
15312;SDS011;7757;52.626;4.746;2022-12-18T03:55:40;21.83;;;8.77;;
15312;SDS011;7757;52.626;4.746;2022-12-18T03:58:08;25.20;;;9.60;;
15312;SDS011;7757;52.626;4.746;2022-12-18T04:00:41;24.73;;;9.60;;
15312;SDS011;7757;52.626;4.746;2022-12-18T04:03:09;23.83;;;9.50;;
15312;SDS011;7757;52.626;4.746;2022-12-18T04:05:38;21.83;;;8.80;;
15312;SDS011;7757;52.626;4.746;2022-12-18T04:08:08;23.40;;;9.38;;
15312;SDS011;7757;52.626;4.746;2022-12-18T04:10:35;24.92;;;9.90;;
15312;SDS011;7757;52.626;4.746;2022-12-18T04:13:02;21.77;;;8.93;;
15312;SDS011;7757;52.626;4.746;2022-12-18T04:15:29;22.55;;;9.15;;
15312;SDS011;7757;52.626;4.746;2022-12-18T04:17:57;22.60;;;9.52;;
15312;SDS011;7757;52.626;4.746;2022-12-18T04:20:23;21.67;;;8.93;;
15312;SDS011;7757;52.626;4.746;2022-12-18T04:22:50;21.25;;;8.45;;
15312;SDS011;7757;52.626;4.746;2022-12-18T04:25:17;22.98;;;8.65;;
15312;SDS011;7757;52.626;4.746;2022-12-18T04:27:44;21.58;;;8.38;;
15312;SDS011;7757;52.626;4.746;2022-12-18T04:30:12;21.38;;;8.98;;
15312;SDS011;7757;52.626;4.746;2022-12-18T04:32:39;23.55;;;9.43;;
15312;SDS011;7757;52.626;4.746;2022-12-18T04:35:08;22.00;;;8.60;;
15312;SDS011;7757;52.626;4.746;2022-12-18T04:37:36;20.17;;;8.30;;
15312;SDS011;7757;52.626;4.746;2022-12-18T04:40:03;22.20;;;8.18;;
15312;SDS011;7757;52.626;4.746;2022-12-18T04:42:31;22.00;;;9.10;;
15312;SDS011;7757;52.626;4.746;2022-12-18T04:44:58;19.95;;;7.90;;
15312;SDS011;7757;52.626;4.746;2022-12-18T04:47:25;22.15;;;8.50;;
15312;SDS011;7757;52.626;4.746;2022-12-18T04:49:51;20.55;;;8.07;;
15312;SDS011;7757;52.626;4.746;2022-12-18T04:52:19;20.35;;;8.18;;
15312;SDS011;7757;52.626;4.746;2022-12-18T04:54:46;20.75;;;8.68;;
15312;SDS011;7757;52.626;4.746;2022-12-18T04:57:13;22.63;;;8.60;;
15312;SDS011;7757;52.626;4.746;2022-12-18T04:59:39;21.25;;;7.88;;
15312;SDS011;7757;52.626;4.746;2022-12-18T05:02:07;24.15;;;8.68;;
15312;SDS011;7757;52.626;4.746;2022-12-18T05:04:34;21.80;;;7.50;;
15312;SDS011;7757;52.626;4.746;2022-12-18T05:07:01;20.48;;;7.72;;
15312;SDS011;7757;52.626;4.746;2022-12-18T05:09:29;21.55;;;8.02;;
15312;SDS011;7757;52.626;4.746;2022-12-18T05:11:55;19.42;;;7.80;;
15312;SDS011;7757;52.626;4.746;2022-12-18T05:14:22;21.88;;;7.97;;
15312;SDS011;7757;52.626;4.746;2022-12-18T05:16:49;18.27;;;7.47;;
15312;SDS011;7757;52.626;4.746;2022-12-18T05:19:16;22.20;;;7.60;;
15312;SDS011;7757;52.626;4.746;2022-12-18T05:21:43;18.85;;;7.78;;
15312;SDS011;7757;52.626;4.746;2022-12-18T05:24:09;20.30;;;7.75;;
15312;SDS011;7757;52.626;4.746;2022-12-18T05:26:38;18.17;;;7.40;;
15312;SDS011;7757;52.626;4.746;2022-12-18T05:29:04;20.50;;;7.55;;
15312;SDS011;7757;52.626;4.746;2022-12-18T05:31:31;19.13;;;7.63;;
15312;SDS011;7757;52.626;4.746;2022-12-18T05:33:58;20.52;;;7.63;;
15312;SDS011;7757;52.626;4.746;2022-12-18T05:36:24;17.80;;;7.05;;
15312;SDS011;7757;52.626;4.746;2022-12-18T05:38:51;19.15;;;7.05;;
15312;SDS011;7757;52.626;4.746;2022-12-18T05:41:18;18.15;;;6.60;;
15312;SDS011;7757;52.626;4.746;2022-12-18T05:43:46;17.92;;;7.03;;
15312;SDS011;7757;52.626;4.746;2022-12-18T05:46:13;18.40;;;7.22;;
15312;SDS011;7757;52.626;4.746;2022-12-18T05:48:42;19.40;;;7.32;;
15312;SDS011;7757;52.626;4.746;2022-12-18T05:51:11;18.08;;;7.78;;
15312;SDS011;7757;52.626;4.746;2022-12-18T05:53:40;17.75;;;7.13;;
15312;SDS011;7757;52.626;4.746;2022-12-18T05:56:08;18.42;;;6.72;;
15312;SDS011;7757;52.626;4.746;2022-12-18T05:58:35;19.02;;;6.97;;
15312;SDS011;7757;52.626;4.746;2022-12-18T06:01:08;18.90;;;6.82;;
15312;SDS011;7757;52.626;4.746;2022-12-18T06:03:37;17.00;;;6.50;;
15312;SDS011;7757;52.626;4.746;2022-12-18T06:06:04;16.50;;;6.50;;
15312;SDS011;7757;52.626;4.746;2022-12-18T06:08:39;17.15;;;6.90;;
15312;SDS011;7757;52.626;4.746;2022-12-18T06:11:06;18.27;;;7.10;;
15312;SDS011;7757;52.626;4.746;2022-12-18T06:13:33;20.80;;;6.35;;
15312;SDS011;7757;52.626;4.746;2022-12-18T06:16:01;16.30;;;6.45;;
15312;SDS011;7757;52.626;4.746;2022-12-18T06:18:30;16.75;;;6.25;;
15312;SDS011;7757;52.626;4.746;2022-12-18T06:20:57;16.70;;;6.32;;
15312;SDS011;7757;52.626;4.746;2022-12-18T06:23:24;16.67;;;6.45;;
15312;SDS011;7757;52.626;4.746;2022-12-18T06:25:51;18.13;;;6.50;;
15312;SDS011;7757;52.626;4.746;2022-12-18T06:28:19;17.52;;;6.47;;
15312;SDS011;7757;52.626;4.746;2022-12-18T06:30:46;15.98;;;6.07;;
15312;SDS011;7757;52.626;4.746;2022-12-18T06:33:13;15.70;;;5.72;;
15312;SDS011;7757;52.626;4.746;2022-12-18T06:35:42;15.15;;;5.45;;
15312;SDS011;7757;52.626;4.746;2022-12-18T06:38:09;16.98;;;6.45;;
15312;SDS011;7757;52.626;4.746;2022-12-18T06:40:36;17.13;;;6.20;;
15312;SDS011;7757;52.626;4.746;2022-12-18T06:43:03;15.80;;;5.95;;
15312;SDS011;7757;52.626;4.746;2022-12-18T06:45:29;15.57;;;5.90;;
15312;SDS011;7757;52.626;4.746;2022-12-18T06:47:56;15.18;;;5.60;;
15312;SDS011;7757;52.626;4.746;2022-12-18T06:50:23;14.70;;;5.68;;
15312;SDS011;7757;52.626;4.746;2022-12-18T06:52:51;14.60;;;5.20;;
15312;SDS011;7757;52.626;4.746;2022-12-18T06:55:18;15.35;;;5.85;;
15312;SDS011;7757;52.626;4.746;2022-12-18T06:57:45;15.90;;;5.53;;
15312;SDS011;7757;52.626;4.746;2022-12-18T07:00:12;17.92;;;5.75;;
15312;SDS011;7757;52.626;4.746;2022-12-18T07:02:39;15.10;;;5.88;;
15312;SDS011;7757;52.626;4.746;2022-12-18T07:05:06;13.95;;;5.25;;
15312;SDS011;7757;52.626;4.746;2022-12-18T07:07:33;15.43;;;5.60;;
15312;SDS011;7757;52.626;4.746;2022-12-18T07:10:01;15.68;;;5.78;;
15312;SDS011;7757;52.626;4.746;2022-12-18T07:12:31;15.77;;;6.05;;
15312;SDS011;7757;52.626;4.746;2022-12-18T07:14:58;15.27;;;5.38;;
15312;SDS011;7757;52.626;4.746;2022-12-18T07:17:25;16.10;;;5.88;;
15312;SDS011;7757;52.626;4.746;2022-12-18T07:19:51;16.55;;;5.88;;
15312;SDS011;7757;52.626;4.746;2022-12-18T07:22:18;13.90;;;5.32;;
15312;SDS011;7757;52.626;4.746;2022-12-18T07:24:45;15.45;;;5.78;;
15312;SDS011;7757;52.626;4.746;2022-12-18T07:27:20;16.10;;;5.80;;
15312;SDS011;7757;52.626;4.746;2022-12-18T07:29:46;15.43;;;5.25;;
15312;SDS011;7757;52.626;4.746;2022-12-18T07:32:13;15.07;;;5.80;;
15312;SDS011;7757;52.626;4.746;2022-12-18T07:34:40;14.68;;;5.53;;
15312;SDS011;7757;52.626;4.746;2022-12-18T07:37:06;15.07;;;5.32;;
15312;SDS011;7757;52.626;4.746;2022-12-18T07:39:33;14.02;;;5.20;;
15312;SDS011;7757;52.626;4.746;2022-12-18T07:42:00;14.02;;;5.30;;
15312;SDS011;7757;52.626;4.746;2022-12-18T07:44:46;14.43;;;5.28;;
15312;SDS011;7757;52.626;4.746;2022-12-18T07:47:12;15.60;;;5.32;;
15312;SDS011;7757;52.626;4.746;2022-12-18T07:49:39;13.65;;;5.22;;
15312;SDS011;7757;52.626;4.746;2022-12-18T07:52:06;13.90;;;4.80;;
15312;SDS011;7757;52.626;4.746;2022-12-18T07:54:34;15.20;;;5.40;;
15312;SDS011;7757;52.626;4.746;2022-12-18T07:57:01;15.68;;;5.20;;
15312;SDS011;7757;52.626;4.746;2022-12-18T07:59:27;14.75;;;5.65;;
15312;SDS011;7757;52.626;4.746;2022-12-18T08:01:55;12.60;;;4.80;;
15312;SDS011;7757;52.626;4.746;2022-12-18T08:04:22;14.20;;;4.85;;
15312;SDS011;7757;52.626;4.746;2022-12-18T08:06:49;14.10;;;5.38;;
15312;SDS011;7757;52.626;4.746;2022-12-18T08:09:15;14.73;;;5.63;;
15312;SDS011;7757;52.626;4.746;2022-12-18T08:11:43;13.88;;;5.28;;
15312;SDS011;7757;52.626;4.746;2022-12-18T08:14:10;13.70;;;5.18;;
15312;SDS011;7757;52.626;4.746;2022-12-18T08:16:36;13.32;;;4.85;;
15312;SDS011;7757;52.626;4.746;2022-12-18T08:19:04;13.88;;;5.38;;
15312;SDS011;7757;52.626;4.746;2022-12-18T08:21:31;15.07;;;5.28;;
15312;SDS011;7757;52.626;4.746;2022-12-18T08:23:59;14.90;;;5.82;;
15312;SDS011;7757;52.626;4.746;2022-12-18T08:26:28;14.02;;;4.88;;
15312;SDS011;7757;52.626;4.746;2022-12-18T08:28:56;13.00;;;4.97;;
15312;SDS011;7757;52.626;4.746;2022-12-18T08:31:25;13.75;;;4.95;;
15312;SDS011;7757;52.626;4.746;2022-12-18T08:33:53;13.20;;;4.85;;
15312;SDS011;7757;52.626;4.746;2022-12-18T08:36:22;15.50;;;5.50;;
15312;SDS011;7757;52.626;4.746;2022-12-18T08:38:49;12.07;;;4.70;;
15312;SDS011;7757;52.626;4.746;2022-12-18T08:41:16;14.82;;;4.72;;
15312;SDS011;7757;52.626;4.746;2022-12-18T08:43:44;13.70;;;5.30;;
15312;SDS011;7757;52.626;4.746;2022-12-18T08:46:31;13.55;;;5.10;;
15312;SDS011;7757;52.626;4.746;2022-12-18T08:49:02;13.80;;;5.18;;
15312;SDS011;7757;52.626;4.746;2022-12-18T08:51:31;19.40;;;5.05;;
15312;SDS011;7757;52.626;4.746;2022-12-18T08:53:58;16.13;;;5.47;;
15312;SDS011;7757;52.626;4.746;2022-12-18T08:56:24;14.50;;;4.93;;
15312;SDS011;7757;52.626;4.746;2022-12-18T08:58:51;13.35;;;4.95;;
15312;SDS011;7757;52.626;4.746;2022-12-18T09:01:19;12.90;;;4.65;;
15312;SDS011;7757;52.626;4.746;2022-12-18T09:03:46;14.82;;;5.30;;
15312;SDS011;7757;52.626;4.746;2022-12-18T09:06:13;13.98;;;4.80;;
15312;SDS011;7757;52.626;4.746;2022-12-18T09:08:42;12.52;;;4.75;;
15312;SDS011;7757;52.626;4.746;2022-12-18T09:11:11;13.73;;;4.82;;
15312;SDS011;7757;52.626;4.746;2022-12-18T09:13:40;13.40;;;4.68;;
15312;SDS011;7757;52.626;4.746;2022-12-18T09:16:07;14.95;;;4.78;;
15312;SDS011;7757;52.626;4.746;2022-12-18T09:18:34;12.50;;;4.75;;
15312;SDS011;7757;52.626;4.746;2022-12-18T09:21:07;13.00;;;4.75;;
15312;SDS011;7757;52.626;4.746;2022-12-18T09:23:35;12.90;;;5.00;;
15312;SDS011;7757;52.626;4.746;2022-12-18T09:26:03;13.52;;;4.57;;
15312;SDS011;7757;52.626;4.746;2022-12-18T09:28:30;13.68;;;4.50;;
15312;SDS011;7757;52.626;4.746;2022-12-18T09:30:57;15.13;;;4.45;;
15312;SDS011;7757;52.626;4.746;2022-12-18T09:33:24;12.43;;;4.22;;
15312;SDS011;7757;52.626;4.746;2022-12-18T09:35:51;12.38;;;4.30;;
15312;SDS011;7757;52.626;4.746;2022-12-18T09:38:18;14.10;;;5.20;;
15312;SDS011;7757;52.626;4.746;2022-12-18T09:40:46;11.80;;;4.43;;
15312;SDS011;7757;52.626;4.746;2022-12-18T09:43:16;13.60;;;5.07;;
15312;SDS011;7757;52.626;4.746;2022-12-18T09:45:46;13.48;;;4.65;;
15312;SDS011;7757;52.626;4.746;2022-12-18T09:48:18;13.45;;;4.65;;
15312;SDS011;7757;52.626;4.746;2022-12-18T09:50:48;12.88;;;4.45;;
15312;SDS011;7757;52.626;4.746;2022-12-18T09:53:19;13.13;;;4.82;;
15312;SDS011;7757;52.626;4.746;2022-12-18T09:55:50;14.15;;;4.40;;
15312;SDS011;7757;52.626;4.746;2022-12-18T09:58:24;13.02;;;4.32;;
15312;SDS011;7757;52.626;4.746;2022-12-18T10:00:54;14.45;;;4.82;;
15312;SDS011;7757;52.626;4.746;2022-12-18T10:03:21;12.10;;;4.20;;
15312;SDS011;7757;52.626;4.746;2022-12-18T10:05:51;11.77;;;4.25;;
15312;SDS011;7757;52.626;4.746;2022-12-18T10:08:27;12.93;;;4.13;;
15312;SDS011;7757;52.626;4.746;2022-12-18T10:11:11;14.95;;;4.35;;
15312;SDS011;7757;52.626;4.746;2022-12-18T10:13:54;14.70;;;4.00;;
15312;SDS011;7757;52.626;4.746;2022-12-18T10:16:27;12.65;;;4.00;;
15312;SDS011;7757;52.626;4.746;2022-12-18T10:19:10;12.30;;;3.85;;
15312;SDS011;7757;52.626;4.746;2022-12-18T10:22:02;12.32;;;4.43;;
15312;SDS011;7757;52.626;4.746;2022-12-18T10:24:38;14.48;;;4.68;;
15312;SDS011;7757;52.626;4.746;2022-12-18T10:27:14;13.27;;;4.32;;
15312;SDS011;7757;52.626;4.746;2022-12-18T10:29:43;11.60;;;3.72;;
15312;SDS011;7757;52.626;4.746;2022-12-18T10:32:13;17.45;;;4.80;;
15312;SDS011;7757;52.626;4.746;2022-12-18T10:34:44;14.93;;;4.55;;
15312;SDS011;7757;52.626;4.746;2022-12-18T10:37:12;12.63;;;4.00;;
15312;SDS011;7757;52.626;4.746;2022-12-18T10:39:44;13.02;;;4.20;;
15312;SDS011;7757;52.626;4.746;2022-12-18T10:42:11;18.90;;;4.07;;
15312;SDS011;7757;52.626;4.746;2022-12-18T10:44:45;11.63;;;4.25;;
15312;SDS011;7757;52.626;4.746;2022-12-18T10:47:26;12.05;;;4.13;;
15312;SDS011;7757;52.626;4.746;2022-12-18T10:49:53;13.52;;;4.35;;
15312;SDS011;7757;52.626;4.746;2022-12-18T10:52:21;13.60;;;3.90;;
15312;SDS011;7757;52.626;4.746;2022-12-18T10:54:51;12.07;;;4.35;;
15312;SDS011;7757;52.626;4.746;2022-12-18T10:57:29;15.32;;;3.92;;
15312;SDS011;7757;52.626;4.746;2022-12-18T11:00:03;13.10;;;4.30;;
15312;SDS011;7757;52.626;4.746;2022-12-18T11:02:47;13.45;;;3.80;;
15312;SDS011;7757;52.626;4.746;2022-12-18T11:05:22;16.55;;;3.90;;
15312;SDS011;7757;52.626;4.746;2022-12-18T11:07:51;12.77;;;3.83;;
15312;SDS011;7757;52.626;4.746;2022-12-18T11:10:25;12.63;;;3.58;;
15312;SDS011;7757;52.626;4.746;2022-12-18T11:12:55;13.70;;;3.83;;
15312;SDS011;7757;52.626;4.746;2022-12-18T11:15:26;12.25;;;3.78;;
15312;SDS011;7757;52.626;4.746;2022-12-18T11:17:55;11.35;;;3.63;;
15312;SDS011;7757;52.626;4.746;2022-12-18T11:20:26;17.02;;;4.35;;
15312;SDS011;7757;52.626;4.746;2022-12-18T11:22:58;12.23;;;3.60;;
15312;SDS011;7757;52.626;4.746;2022-12-18T11:25:26;10.90;;;3.60;;
15312;SDS011;7757;52.626;4.746;2022-12-18T11:27:54;12.20;;;3.90;;
15312;SDS011;7757;52.626;4.746;2022-12-18T11:30:27;15.38;;;3.75;;
15312;SDS011;7757;52.626;4.746;2022-12-18T11:32:59;16.17;;;3.90;;
15312;SDS011;7757;52.626;4.746;2022-12-18T11:35:35;12.40;;;3.50;;
15312;SDS011;7757;52.626;4.746;2022-12-18T11:38:10;13.02;;;4.18;;
15312;SDS011;7757;52.626;4.746;2022-12-18T11:40:42;11.80;;;3.60;;
15312;SDS011;7757;52.626;4.746;2022-12-18T11:43:15;10.70;;;3.25;;
15312;SDS011;7757;52.626;4.746;2022-12-18T11:45:47;11.43;;;3.30;;
15312;SDS011;7757;52.626;4.746;2022-12-18T11:48:20;13.45;;;3.42;;
15312;SDS011;7757;52.626;4.746;2022-12-18T11:50:50;13.88;;;3.67;;
15312;SDS011;7757;52.626;4.746;2022-12-18T11:53:18;12.02;;;3.47;;
15312;SDS011;7757;52.626;4.746;2022-12-18T11:55:55;12.85;;;3.70;;
15312;SDS011;7757;52.626;4.746;2022-12-18T11:58:35;10.73;;;3.15;;
15312;SDS011;7757;52.626;4.746;2022-12-18T12:01:26;12.55;;;3.38;;
15312;SDS011;7757;52.626;4.746;2022-12-18T12:07:12;11.50;;;3.58;;
15312;SDS011;7757;52.626;4.746;2022-12-18T12:09:52;13.68;;;3.30;;
15312;SDS011;7757;52.626;4.746;2022-12-18T12:12:29;10.90;;;3.38;;
15312;SDS011;7757;52.626;4.746;2022-12-18T12:15:13;12.55;;;3.60;;
15312;SDS011;7757;52.626;4.746;2022-12-18T12:17:51;11.57;;;3.25;;
15312;SDS011;7757;52.626;4.746;2022-12-18T12:22:58;11.02;;;3.35;;
15312;SDS011;7757;52.626;4.746;2022-12-18T12:25:33;13.30;;;3.28;;
15312;SDS011;7757;52.626;4.746;2022-12-18T12:28:10;10.68;;;3.20;;
15312;SDS011;7757;52.626;4.746;2022-12-18T12:30:49;11.38;;;3.47;;
15312;SDS011;7757;52.626;4.746;2022-12-18T12:33:27;11.82;;;3.13;;
15312;SDS011;7757;52.626;4.746;2022-12-18T12:36:07;11.82;;;3.20;;
15312;SDS011;7757;52.626;4.746;2022-12-18T12:38:44;11.00;;;3.25;;
15312;SDS011;7757;52.626;4.746;2022-12-18T12:41:16;11.75;;;3.35;;
15312;SDS011;7757;52.626;4.746;2022-12-18T12:44:04;11.70;;;3.65;;
15312;SDS011;7757;52.626;4.746;2022-12-18T12:46:36;11.07;;;3.25;;
15312;SDS011;7757;52.626;4.746;2022-12-18T12:49:09;11.75;;;3.20;;
15312;SDS011;7757;52.626;4.746;2022-12-18T12:51:40;10.50;;;3.00;;
15312;SDS011;7757;52.626;4.746;2022-12-18T12:54:11;13.82;;;3.40;;
15312;SDS011;7757;52.626;4.746;2022-12-18T12:56:44;11.02;;;3.15;;
15312;SDS011;7757;52.626;4.746;2022-12-18T12:59:19;10.07;;;3.40;;
15312;SDS011;7757;52.626;4.746;2022-12-18T13:01:54;11.32;;;3.53;;
15312;SDS011;7757;52.626;4.746;2022-12-18T13:07:02;11.02;;;3.35;;
15312;SDS011;7757;52.626;4.746;2022-12-18T13:09:33;12.52;;;3.75;;
15312;SDS011;7757;52.626;4.746;2022-12-18T13:12:01;12.18;;;3.45;;
15312;SDS011;7757;52.626;4.746;2022-12-18T13:14:47;11.70;;;3.15;;
15312;SDS011;7757;52.626;4.746;2022-12-18T13:20:05;13.43;;;4.20;;
15312;SDS011;7757;52.626;4.746;2022-12-18T13:22:34;12.93;;;3.40;;
15312;SDS011;7757;52.626;4.746;2022-12-18T13:25:04;12.32;;;3.40;;
15312;SDS011;7757;52.626;4.746;2022-12-18T13:28:01;10.90;;;3.42;;
15312;SDS011;7757;52.626;4.746;2022-12-18T13:30:44;11.15;;;3.22;;
15312;SDS011;7757;52.626;4.746;2022-12-18T13:36:12;11.30;;;3.85;;
15312;SDS011;7757;52.626;4.746;2022-12-18T13:38:41;14.15;;;3.80;;
15312;SDS011;7757;52.626;4.746;2022-12-18T13:41:22;10.75;;;3.10;;
15312;SDS011;7757;52.626;4.746;2022-12-18T13:43:51;11.77;;;3.22;;
15312;SDS011;7757;52.626;4.746;2022-12-18T13:46:20;10.82;;;3.25;;
15312;SDS011;7757;52.626;4.746;2022-12-18T13:48:50;10.45;;;2.97;;
15312;SDS011;7757;52.626;4.746;2022-12-18T13:51:21;11.48;;;3.33;;
15312;SDS011;7757;52.626;4.746;2022-12-18T13:53:51;11.93;;;3.28;;
15312;SDS011;7757;52.626;4.746;2022-12-18T13:56:21;9.80;;;3.08;;
15312;SDS011;7757;52.626;4.746;2022-12-18T14:01:44;10.85;;;3.00;;
15312;SDS011;7757;52.626;4.746;2022-12-18T14:04:12;11.77;;;3.35;;
15312;SDS011;7757;52.626;4.746;2022-12-18T14:06:46;12.07;;;3.10;;
15312;SDS011;7757;52.626;4.746;2022-12-18T14:09:15;11.57;;;3.00;;
15312;SDS011;7757;52.626;4.746;2022-12-18T14:11:47;12.10;;;3.28;;
15312;SDS011;7757;52.626;4.746;2022-12-18T14:14:15;11.13;;;3.10;;
15312;SDS011;7757;52.626;4.746;2022-12-18T14:16:42;9.65;;;3.00;;
15312;SDS011;7757;52.626;4.746;2022-12-18T14:19:10;10.73;;;3.22;;
15312;SDS011;7757;52.626;4.746;2022-12-18T14:21:39;10.15;;;3.00;;
15312;SDS011;7757;52.626;4.746;2022-12-18T14:24:13;10.07;;;3.20;;
15312;SDS011;7757;52.626;4.746;2022-12-18T14:26:41;9.85;;;2.92;;
15312;SDS011;7757;52.626;4.746;2022-12-18T14:29:18;10.82;;;3.35;;
15312;SDS011;7757;52.626;4.746;2022-12-18T14:34:42;10.40;;;2.78;;
15312;SDS011;7757;52.626;4.746;2022-12-18T14:37:09;11.23;;;3.20;;
15312;SDS011;7757;52.626;4.746;2022-12-18T14:39:38;9.93;;;3.08;;
15312;SDS011;7757;52.626;4.746;2022-12-18T14:42:05;9.55;;;2.90;;
15312;SDS011;7757;52.626;4.746;2022-12-18T14:44:33;11.98;;;2.80;;
15312;SDS011;7757;52.626;4.746;2022-12-18T14:47:00;9.52;;;2.78;;
15312;SDS011;7757;52.626;4.746;2022-12-18T14:49:29;11.15;;;2.88;;
15312;SDS011;7757;52.626;4.746;2022-12-18T14:51:57;9.57;;;2.95;;
15312;SDS011;7757;52.626;4.746;2022-12-18T14:54:28;10.18;;;2.90;;
15312;SDS011;7757;52.626;4.746;2022-12-18T14:56:59;9.05;;;2.65;;
15312;SDS011;7757;52.626;4.746;2022-12-18T14:59:28;10.05;;;3.03;;
15312;SDS011;7757;52.626;4.746;2022-12-18T15:01:58;9.90;;;3.00;;
15312;SDS011;7757;52.626;4.746;2022-12-18T15:04:28;10.68;;;3.17;;
15312;SDS011;7757;52.626;4.746;2022-12-18T15:07:12;11.07;;;3.20;;
15312;SDS011;7757;52.626;4.746;2022-12-18T15:09:42;11.77;;;3.28;;
15312;SDS011;7757;52.626;4.746;2022-12-18T15:12:32;11.30;;;2.80;;
15312;SDS011;7757;52.626;4.746;2022-12-18T15:15:00;10.70;;;3.25;;
15312;SDS011;7757;52.626;4.746;2022-12-18T15:17:27;9.32;;;2.92;;
15312;SDS011;7757;52.626;4.746;2022-12-18T15:19:58;12.32;;;3.00;;
15312;SDS011;7757;52.626;4.746;2022-12-18T15:22:27;11.15;;;3.05;;
15312;SDS011;7757;52.626;4.746;2022-12-18T15:24:57;10.15;;;2.83;;